Albelo Primero — ECMU — position and weather

sailwx.info

Track history (hours):
 
Tides and Currents Weather Stations Pressure Air Temp Water Temp Dewpoint Dewpoint Depression Visibility Wind Speed Wind Dir Waves Ship Positions

Albelo Primero

Last reported at 2015-Aug-03 06:30 UTC. Time now 2015-Aug-03 10:39 UTC.
Position N 47°10' W 004°35'.

Length 32 m; draft 3.5 m.

Type: Fishing. MMSI: 225360000.

Date/timePositionNaut miles runAvg speedWind from/ knotsBaromVisibWave heightAir tempDewpointWater temp
2015-Aug-03 06:30N 47°10' W 004°35'1 0.6
2015-Aug-03 04:28N 47°10' W 004°36'9 4.5
2015-Aug-03 02:27N 47°10' W 004°50'9 9.5
2015-Aug-03 01:28N 47°10' W 004°36'9 2.7
2015-Aug-02 22:14N 47°05' W 004°47'1 1.4
2015-Aug-02 21:33N 47°05' W 004°45'2 1.6
2015-Aug-02 20:33N 47°05' W 004°43'2 1.6
2015-Aug-02 19:34N 47°06' W 004°41'2 1.6
2015-Aug-02 18:29N 47°07' W 004°39'1 1.1
2015-Aug-02 17:33N 47°07' W 004°37'4 3.2
2015-Aug-02 16:21N 47°10' W 004°37'1 1.3
2015-Aug-02 15:17N 47°10' W 004°39'1 1.3
2015-Aug-02 14:28N 47°10' W 004°41'1 1.4
2015-Aug-02 13:33N 47°10' W 004°43'1 1.4
2015-Aug-02 12:33N 47°09' W 004°45'1 1.4
2015-Aug-02 11:33N 47°09' W 004°47'1 1.3
2015-Aug-02 10:33N 47°09' W 004°48'1 1.2
2015-Aug-02 09:33N 47°09' W 004°50'1 0.6
2015-Aug-02 08:31N 47°10' W 004°50'0 0.1
2015-Aug-02 07:12N 47°10' W 004°50'0 0.7
2015-Aug-02 06:33N 47°10' W 004°50'0 0.0
2015-Aug-02 05:08N 47°10' W 004°49'4 6.6
2015-Aug-02 04:33N 47°07' W 004°45'4 4.1
2015-Aug-02 03:29N 47°07' W 004°39'8 7.7
2015-Aug-02 02:26N 47°07' W 004°51'6 6.7
2015-Aug-02 01:32N 47°10' W 004°43'9 4.7
2015-Aug-01 23:33N 47°02' W 004°49'1 1.1
2015-Aug-01 22:33N 47°01' W 004°48'1 1.4
2015-Aug-01 21:33N 47°00' W 004°46'1 1.4
2015-Aug-01 20:32N 47°00' W 004°44'2 1.6
2015-Aug-01 19:33N 47°00' W 004°42'2 1.8
2015-Aug-01 18:33N 47°01' W 004°40'2 1.7
2015-Aug-01 17:29N 47°01' W 004°37'1 1.1
2015-Aug-01 16:33N 47°02' W 004°36'2 2.4
2015-Aug-01 15:33N 47°04' W 004°35'1 1.3
2015-Aug-01 14:33N 47°04' W 004°37'1 1.3
2015-Aug-01 13:30N 47°04' W 004°39'2 1.6
2015-Aug-01 12:25N 47°04' W 004°42'2 1.6
2015-Aug-01 11:25N 47°03' W 004°44'1 1.6
2015-Aug-01 10:33N 47°03' W 004°46'2 0.8
2015-Aug-01 08:28N 47°03' W 004°48'3 1.5
2015-Aug-01 06:26N 47°01' W 004°46'1 1.1
2015-Aug-01 05:31N 47°02' W 004°46'1 1.3
2015-Aug-01 04:33N 47°03' W 004°47'1 0.9
2015-Aug-01 03:27N 47°04' W 004°48'  
2015-Jul-28 23:30N 47°02' W 005°11'1 1.1
2015-Jul-28 22:33N 47°02' W 005°10'1 1.1
2015-Jul-28 21:23N 47°02' W 005°08'  
Track history (hours):
 
Tides and Currents Weather Stations Pressure Air Temp Water Temp Dewpoint Dewpoint Depression Visibility Wind Speed Wind Dir Waves Ship Positions

Albelo Primero

Last reported at 2015-Aug-03 06:30 UTC. Time now 2015-Aug-03 10:39 UTC.
Position N 47°10' W 004°35'.

Length 32 m; draft 3.5 m.

Type: Fishing. MMSI: 225360000.

Date/timePositionNaut miles runAvg speedWind from/ knotsBaromVisibWave heightAir tempDewpointWater temp
2015-Aug-03 06:30N 47°10' W 004°35'1 0.6
2015-Aug-03 04:28N 47°10' W 004°36'9 4.5
2015-Aug-03 02:27N 47°10' W 004°50'9 9.5
2015-Aug-03 01:28N 47°10' W 004°36'9 2.7
2015-Aug-02 22:14N 47°05' W 004°47'1 1.4
2015-Aug-02 21:33N 47°05' W 004°45'2 1.6
2015-Aug-02 20:33N 47°05' W 004°43'2 1.6
2015-Aug-02 19:34N 47°06' W 004°41'2 1.6
2015-Aug-02 18:29N 47°07' W 004°39'1 1.1
2015-Aug-02 17:33N 47°07' W 004°37'4 3.2
2015-Aug-02 16:21N 47°10' W 004°37'1 1.3
2015-Aug-02 15:17N 47°10' W 004°39'1 1.3
2015-Aug-02 14:28N 47°10' W 004°41'1 1.4
2015-Aug-02 13:33N 47°10' W 004°43'1 1.4
2015-Aug-02 12:33N 47°09' W 004°45'1 1.4
2015-Aug-02 11:33N 47°09' W 004°47'1 1.3
2015-Aug-02 10:33N 47°09' W 004°48'1 1.2
2015-Aug-02 09:33N 47°09' W 004°50'1 0.6
2015-Aug-02 08:31N 47°10' W 004°50'0 0.1
2015-Aug-02 07:12N 47°10' W 004°50'0 0.7
2015-Aug-02 06:33N 47°10' W 004°50'0 0.0
2015-Aug-02 05:08N 47°10' W 004°49'4 6.6
2015-Aug-02 04:33N 47°07' W 004°45'4 4.1
2015-Aug-02 03:29N 47°07' W 004°39'8 7.7
2015-Aug-02 02:26N 47°07' W 004°51'6 6.7
2015-Aug-02 01:32N 47°10' W 004°43'9 4.7
2015-Aug-01 23:33N 47°02' W 004°49'1 1.1
2015-Aug-01 22:33N 47°01' W 004°48'1 1.4
2015-Aug-01 21:33N 47°00' W 004°46'1 1.4
2015-Aug-01 20:32N 47°00' W 004°44'2 1.6
2015-Aug-01 19:33N 47°00' W 004°42'2 1.8
2015-Aug-01 18:33N 47°01' W 004°40'2 1.7
2015-Aug-01 17:29N 47°01' W 004°37'1 1.1
2015-Aug-01 16:33N 47°02' W 004°36'2 2.4
2015-Aug-01 15:33N 47°04' W 004°35'1 1.3
2015-Aug-01 14:33N 47°04' W 004°37'1 1.3
2015-Aug-01 13:30N 47°04' W 004°39'2 1.6
2015-Aug-01 12:25N 47°04' W 004°42'2 1.6
2015-Aug-01 11:25N 47°03' W 004°44'1 1.6
2015-Aug-01 10:33N 47°03' W 004°46'2 0.8
2015-Aug-01 08:28N 47°03' W 004°48'3 1.5
2015-Aug-01 06:26N 47°01' W 004°46'1 1.1
2015-Aug-01 05:31N 47°02' W 004°46'1 1.3
2015-Aug-01 04:33N 47°03' W 004°47'1 0.9
2015-Aug-01 03:27N 47°04' W 004°48'  
2015-Jul-28 23:30N 47°02' W 005°11'1 1.1
2015-Jul-28 22:33N 47°02' W 005°10'1 1.1
2015-Jul-28 21:23N 47°02' W 005°08'  

Dump ship's entire track history